Shelagontsy, Russia
Current Conditions -  °F | °C
As of 5:30 PM on Sunday 26 Oct 2014 (Local Time) from UEEE Reporting Station
Overcast Overcast  
Wind Chill:   Ceiling: 10000
Heat Index:   Visibility: 6mi
Dew Point:   Wind: 2mph
Humidity: 92%   Direction: 190°S
Pressure: 30.53"   Gusts: NA
Location:  66.25°N, 114.28°E
Report Text: UEEE 260830Z 19001MPS 9999 SCT018 OVC100 M13/M14 Q1034 NOSIGRMK QFE766 23490150
Loading
Personal Weather Stations






























Interactive Weather Map
Tropical Storm Tracking
New forecast layout! Learn more

10-Day Weather Forecast

Advertisements
Track Severe Weather on mobile